Time;durP1;ratioP1;P1;durP2;ratioP2;P2;SDS_P1;SDS_P2;PMS_P1;PMS_P2;Temp;Humidity;BMP_temperature;BMP_pressure;BME280_temperature;BME280_humidity;BME280_pressure;Samples;Min_cycle;Max_cycle;Signal;HPM_P1;HPM_P2
2022/07/13 00:00:06;;;;;;;1.40;1.20;;;22.40;90.30;;;;;;5072826;28;20035;-59
2022/07/13 00:02:32;;;;;;;1.30;1.20;;;22.50;90.30;;;;;;5073184;28;20040;-59
2022/07/13 00:04:57;;;;;;;2.33;1.30;;;22.80;90.40;;;;;;5072600;28;20074;-59
2022/07/13 00:07:23;;;;;;;3.47;1.30;;;22.60;90.30;;;;;;5072886;28;20028;-59
2022/07/13 00:09:49;;;;;;;1.83;1.48;;;22.30;90.60;;;;;;5072966;28;20539;-59
2022/07/13 00:12:14;;;;;;;1.85;1.13;;;22.50;90.50;;;;;;5072365;28;20033;-58
2022/07/13 00:14:40;;;;;;;1.55;1.30;;;22.90;90.40;;;;;;5072321;28;20028;-59
2022/07/13 00:17:06;;;;;;;2.70;1.23;;;22.90;90.30;;;;;;5072653;28;20410;-59
2022/07/13 00:19:32;;;;;;;2.35;1.40;;;22.90;90.20;;;;;;5072864;28;20022;-59
2022/07/13 00:21:57;;;;;;;2.20;1.50;;;22.90;90.20;;;;;;5072548;28;20020;-59
2022/07/13 00:24:23;;;;;;;4.82;1.30;;;22.70;90.50;;;;;;5072500;28;20028;-59
2022/07/13 00:26:49;;;;;;;2.38;1.48;;;22.70;90.30;;;;;;5072313;28;20024;-59
2022/07/13 00:29:14;;;;;;;2.85;1.48;;;22.90;90.50;;;;;;5072430;28;20055;-59
2022/07/13 00:31:41;;;;;;;1.40;1.30;;;22.80;90.50;;;;;;5072338;28;20385;-59
2022/07/13 00:34:07;;;;;;;3.00;1.40;;;22.80;90.50;;;;;;5072424;28;20033;-59
2022/07/13 00:36:33;;;;;;;1.35;1.25;;;22.80;90.60;;;;;;5072293;28;20466;-59
2022/07/13 00:38:58;;;;;;;2.42;1.20;;;22.80;90.60;;;;;;5072048;28;20064;-59
2022/07/13 00:41:24;;;;;;;1.83;1.25;;;22.80;90.60;;;;;;5071934;28;20481;-59
2022/07/13 00:43:50;;;;;;;1.75;1.20;;;22.90;90.60;;;;;;5072168;28;20020;-59
2022/07/13 00:46:15;;;;;;;1.50;1.20;;;22.70;90.80;;;;;;5072584;28;20012;-58
2022/07/13 00:48:42;;;;;;;4.40;1.55;;;22.60;91.00;;;;;;5072297;28;20507;-58
2022/07/13 00:51:08;;;;;;;1.80;1.30;;;22.70;90.90;;;;;;5072077;28;20055;-59
2022/07/13 00:53:39;;;;;;;1.83;1.23;;;22.40;91.30;;;;;;5072145;28;20435;-59
2022/07/13 00:56:05;;;;;;;2.95;1.20;;;22.40;91.40;;;;;;5072155;28;20038;-59
2022/07/13 00:58:32;;;;;;;2.22;1.30;;;22.50;91.40;;;;;;5072007;28;20058;-58
2022/07/13 01:00:57;;;;;;;1.40;1.30;;;22.50;91.40;;;;;;5071898;28;20077;-59
2022/07/13 01:03:23;;;;;;;1.75;1.30;;;22.40;91.40;;;;;;5072440;28;20037;-59
2022/07/13 01:05:50;;;;;;;1.33;1.10;;;22.30;91.80;;;;;;5071929;28;20028;-59
2022/07/13 01:08:19;;;;;;;1.25;1.10;;;22.30;91.80;;;;;;5071912;28;20116;-59
2022/07/13 01:10:46;;;;;;;2.47;1.13;;;22.20;91.80;;;;;;5071270;28;20035;-59
2022/07/13 01:13:13;;;;;;;1.88;1.20;;;22.30;91.50;;;;;;5072081;28;20477;-59
2022/07/13 01:15:39;;;;;;;1.90;1.27;;;22.30;91.80;;;;;;5071766;28;20128;-58
2022/07/13 01:18:05;;;;;;;2.25;1.20;;;22.20;91.90;;;;;;5071835;28;20100;-59
2022/07/13 01:20:31;;;;;;;3.15;1.25;;;22.20;91.70;;;;;;5071830;28;20028;-58
2022/07/13 01:22:57;;;;;;;2.42;1.33;;;22.20;91.70;;;;;;5072112;28;20016;-59
2022/07/13 01:25:23;;;;;;;3.67;1.30;;;22.20;91.80;;;;;;5071487;28;20035;-58
2022/07/13 01:27:49;;;;;;;1.98;1.40;;;22.20;91.90;;;;;;5074358;28;20100;-59
2022/07/13 01:30:16;;;;;;;1.38;1.20;;;22.00;92.00;;;;;;5076120;28;20082;-58
2022/07/13 01:32:43;;;;;;;1.20;1.10;;;22.10;91.90;;;;;;5075887;28;20035;-58
2022/07/13 01:35:09;;;;;;;1.65;1.10;;;22.00;92.00;;;;;;5075680;28;20040;-58
2022/07/13 01:37:35;;;;;;;1.67;1.20;;;22.10;92.00;;;;;;5075911;28;20473;-59
2022/07/13 01:40:01;;;;;;;1.92;1.30;;;21.80;92.10;;;;;;5075187;28;20031;-59
2022/07/13 01:42:28;;;;;;;3.15;1.20;;;21.90;92.00;;;;;;5076091;28;20053;-58
2022/07/13 01:44:54;;;;;;;2.03;1.20;;;21.80;92.10;;;;;;5075531;28;20031;-58
2022/07/13 01:47:20;;;;;;;2.08;1.35;;;21.80;92.20;;;;;;5075646;28;20032;-58
2022/07/13 01:49:45;;;;;;;3.17;1.15;;;21.80;92.30;;;;;;5075277;28;20051;-59
2022/07/13 01:52:11;;;;;;;1.00;1.00;;;21.80;92.30;;;;;;5075749;28;20028;-59
2022/07/13 01:54:37;;;;;;;2.55;1.23;;;21.80;92.40;;;;;;5075050;28;20021;-58
2022/07/13 01:57:03;;;;;;;1.23;1.08;;;21.50;92.60;;;;;;5075720;28;20060;-59
2022/07/13 01:59:28;;;;;;;3.30;1.30;;;21.60;92.70;;;;;;5075289;28;20028;-59
2022/07/13 02:01:54;;;;;;;2.45;1.08;;;21.40;92.80;;;;;;5075190;28;20035;-59
2022/07/13 02:04:20;;;;;;;1.30;1.20;;;21.30;92.90;;;;;;5075245;28;20020;-58
2022/07/13 02:06:45;;;;;;;2.38;1.20;;;21.30;92.90;;;;;;5075219;28;20032;-58
2022/07/13 02:09:11;;;;;;;1.70;1.20;;;21.20;93.00;;;;;;5074908;28;20020;-59
2022/07/13 02:11:37;;;;;;;2.90;1.20;;;21.30;93.00;;;;;;5075333;28;20036;-59
2022/07/13 02:14:02;;;;;;;1.33;1.23;;;21.20;93.10;;;;;;5074938;28;20140;-59
2022/07/13 02:16:28;;;;;;;2.00;1.40;;;21.20;93.10;;;;;;5075322;28;20420;-59
2022/07/13 02:18:54;;;;;;;1.30;1.20;;;21.10;93.10;;;;;;5074785;28;20021;-59
2022/07/13 02:21:19;;;;;;;2.22;1.40;;;21.30;93.00;;;;;;5074629;28;20032;-58
2022/07/13 02:23:45;;;;;;;1.30;1.20;;;21.10;93.00;;;;;;5074786;28;20032;-59
2022/07/13 02:26:11;;;;;;;2.63;1.20;;;21.10;93.20;;;;;;5074701;28;20064;-59
2022/07/13 02:28:36;;;;;;;1.80;1.00;;;21.10;93.20;;;;;;5075159;28;20047;-59
2022/07/13 02:31:02;;;;;;;1.70;1.13;;;21.00;93.40;;;;;;5074615;28;20040;-59
2022/07/13 02:33:28;;;;;;;1.33;1.23;;;21.00;93.30;;;;;;5074566;28;20023;-59
2022/07/13 02:35:53;;;;;;;2.13;1.00;;;21.00;93.40;;;;;;5074320;28;20583;-59
2022/07/13 02:38:19;;;;;;;2.05;1.42;;;21.10;93.30;;;;;;5074480;28;20039;-59
2022/07/13 02:40:45;;;;;;;2.03;1.20;;;21.00;93.40;;;;;;5074560;28;20032;-59
2022/07/13 02:43:11;;;;;;;2.05;1.15;;;21.00;93.30;;;;;;5074526;28;20025;-58
2022/07/13 02:45:36;;;;;;;1.30;1.20;;;21.10;93.30;;;;;;5074326;28;20029;-59
2022/07/13 02:48:02;;;;;;;1.48;1.30;;;21.00;93.40;;;;;;5074359;28;20024;-58
2022/07/13 02:50:28;;;;;;;1.42;1.30;;;21.10;93.30;;;;;;5074236;28;20439;-58
2022/07/13 02:52:53;;;;;;;2.25;1.20;;;20.90;93.50;;;;;;5074246;28;20020;-59
2022/07/13 02:55:19;;;;;;;1.63;1.33;;;21.00;93.50;;;;;;5074728;28;20121;-59
2022/07/13 02:57:46;;;;;;;5.38;1.40;;;20.80;93.50;;;;;;5074240;28;20040;-59
2022/07/13 03:00:12;;;;;;;1.63;1.30;;;20.70;93.90;;;;;;5074111;28;20032;-59
2022/07/13 03:02:38;;;;;;;1.33;1.20;;;20.80;93.70;;;;;;5074470;28;20023;-58
2022/07/13 03:05:04;;;;;;;2.17;1.10;;;20.80;93.70;;;;;;5073637;28;20028;-58
2022/07/13 03:07:30;;;;;;;1.95;1.25;;;20.60;94.00;;;;;;5074078;28;20481;-59
2022/07/13 03:09:57;;;;;;;2.13;1.27;;;20.50;94.00;;;;;;5074462;28;20027;-59
2022/07/13 03:12:22;;;;;;;1.10;1.00;;;20.60;94.00;;;;;;5073917;28;20050;-59
2022/07/13 03:14:48;;;;;;;1.15;1.05;;;20.60;94.10;;;;;;5073863;28;20024;-58
2022/07/13 03:17:14;;;;;;;1.85;1.20;;;20.50;94.10;;;;;;5073811;28;20028;-58
2022/07/13 03:19:39;;;;;;;2.45;1.40;;;20.40;94.20;;;;;;5073406;28;20028;-59
2022/07/13 03:22:05;;;;;;;1.98;1.40;;;20.30;94.40;;;;;;5073876;28;20025;-58
2022/07/13 03:24:31;;;;;;;3.28;1.40;;;20.20;94.50;;;;;;5073805;28;20112;-58
2022/07/13 03:26:57;;;;;;;2.78;1.30;;;20.20;94.60;;;;;;5073523;28;20488;-58
2022/07/13 03:29:23;;;;;;;1.67;1.40;;;20.40;94.30;;;;;;5074110;28;20033;-59
2022/07/13 03:31:48;;;;;;;1.80;1.35;;;20.30;94.40;;;;;;5073553;28;20134;-59
2022/07/13 03:34:14;;;;;;;1.20;1.10;;;20.10;94.70;;;;;;5073194;28;20052;-59
2022/07/13 03:36:40;;;;;;;1.70;1.20;;;20.20;94.60;;;;;;5073172;28;20569;-59
2022/07/13 03:39:05;;;;;;;1.38;1.27;;;20.30;94.60;;;;;;5073242;28;20480;-59
2022/07/13 03:41:31;;;;;;;2.10;1.15;;;20.10;94.60;;;;;;5073326;28;20028;-58
2022/07/13 03:43:57;;;;;;;1.50;1.20;;;20.20;94.60;;;;;;5073541;28;20362;-58
2022/07/13 03:46:22;;;;;;;1.50;1.30;;;20.20;94.60;;;;;;5073547;28;20109;-58
2022/07/13 03:48:48;;;;;;;3.67;1.67;;;20.10;94.70;;;;;;5072455;28;20033;-58
2022/07/13 03:51:14;;;;;;;4.68;1.55;;;20.40;94.30;;;;;;5072625;28;20033;-59
2022/07/13 03:53:40;;;;;;;4.53;1.63;;;20.50;94.20;;;;;;5073493;28;20036;-59
2022/07/13 03:56:06;;;;;;;2.78;1.42;;;20.50;94.10;;;;;;5073162;28;20032;-58
2022/07/13 03:58:32;;;;;;;1.75;1.40;;;20.40;94.30;;;;;;5073155;28;20083;-58
2022/07/13 04:00:58;;;;;;;3.15;1.60;;;20.20;94.60;;;;;;5072772;28;20028;-58
2022/07/13 04:03:24;;;;;;;2.70;1.40;;;20.00;94.90;;;;;;5073060;28;20028;-58
2022/07/13 04:05:49;;;;;;;2.40;1.70;;;20.00;95.00;;;;;;5072919;28;20107;-58
2022/07/13 04:08:15;;;;;;;2.22;1.70;;;20.00;95.10;;;;;;5072746;28;20386;-59
2022/07/13 04:10:41;;;;;;;6.15;1.80;;;19.90;95.30;;;;;;5072733;28;20103;-59
2022/07/13 04:13:06;;;;;;;2.00;1.60;;;19.90;95.50;;;;;;5071784;28;20033;-58
2022/07/13 04:15:32;;;;;;;4.03;1.40;;;19.70;95.70;;;;;;5072482;28;20107;-58
2022/07/13 04:17:58;;;;;;;3.90;1.70;;;19.90;95.40;;;;;;5072526;28;20362;-59
2022/07/13 04:20:24;;;;;;;2.13;1.60;;;19.80;95.70;;;;;;5072568;28;20031;-59
2022/07/13 04:22:49;;;;;;;3.25;1.63;;;19.70;95.80;;;;;;5072713;28;20374;-59
2022/07/13 04:25:15;;;;;;;6.35;1.80;;;19.70;95.90;;;;;;5072522;28;20370;-59
2022/07/13 04:27:41;;;;;;;7.60;1.88;;;19.80;95.60;;;;;;5070992;28;20033;-59
2022/07/13 04:30:07;;;;;;;4.68;1.80;;;19.70;95.80;;;;;;5072699;28;20028;-58
2022/07/13 04:32:33;;;;;;;4.85;1.70;;;19.50;96.10;;;;;;5072094;28;20028;-58
2022/07/13 04:34:58;;;;;;;2.75;1.48;;;19.50;96.30;;;;;;5072136;28;20385;-59
2022/07/13 04:37:24;;;;;;;6.10;1.90;;;19.50;96.30;;;;;;5072006;28;20052;-59
2022/07/13 04:39:50;;;;;;;4.78;1.77;;;19.40;96.40;;;;;;5072264;28;20461;-59
2022/07/13 04:42:15;;;;;;;5.85;1.80;;;19.50;96.20;;;;;;5072297;28;20035;-59
2022/07/13 04:44:41;;;;;;;5.18;1.73;;;19.50;96.20;;;;;;5072220;28;20038;-58
2022/07/13 04:47:07;;;;;;;5.07;1.60;;;19.40;96.40;;;;;;5071922;28;20032;-58
2022/07/13 04:49:33;;;;;;;7.45;1.95;;;19.30;96.60;;;;;;5072050;28;20024;-58
2022/07/13 04:51:59;;;;;;;6.95;1.70;;;19.50;96.20;;;;;;5072573;28;20025;-59
2022/07/13 04:54:24;;;;;;;8.45;2.10;;;19.50;96.30;;;;;;5072128;28;20048;-59
2022/07/13 04:56:50;;;;;;;6.80;2.20;;;19.40;96.50;;;;;;5071961;28;20127;-58
2022/07/13 04:59:16;;;;;;;10.70;1.98;;;19.30;96.70;;;;;;5072298;28;20465;-58
2022/07/13 05:01:41;;;;;;;7.03;1.92;;;19.50;96.50;;;;;;5070800;28;20090;-58
2022/07/13 05:04:08;;;;;;;17.40;2.72;;;19.50;96.50;;;;;;5072050;28;20493;-58
2022/07/13 05:06:34;;;;;;;5.90;1.95;;;19.60;96.30;;;;;;5072044;28;20451;-59
2022/07/13 05:09:00;;;;;;;10.30;2.28;;;19.90;95.80;;;;;;5072266;28;20021;-59
2022/07/13 05:11:26;;;;;;;9.30;2.70;;;20.00;95.50;;;;;;5071897;28;20485;-58
2022/07/13 05:13:52;;;;;;;8.25;2.17;;;20.10;95.40;;;;;;5071776;28;20100;-58
2022/07/13 05:16:18;;;;;;;6.70;2.33;;;20.00;95.50;;;;;;5071492;28;20044;-59
2022/07/13 05:18:45;;;;;;;9.32;2.20;;;19.70;95.90;;;;;;5071745;28;20032;-58
2022/07/13 05:21:11;;;;;;;6.53;2.08;;;19.70;96.00;;;;;;5071829;28;20032;-59
2022/07/13 05:23:37;;;;;;;9.68;2.70;;;19.50;96.40;;;;;;5071796;28;20020;-59
2022/07/13 05:26:04;;;;;;;8.38;2.20;;;19.50;96.40;;;;;;5071923;28;20503;-59
2022/07/13 05:28:30;;;;;;;9.05;2.20;;;19.70;96.40;;;;;;5071761;28;20074;-59
2022/07/13 05:30:56;;;;;;;3.90;1.90;;;20.00;95.80;;;;;;5071371;28;20067;-59
2022/07/13 05:33:22;;;;;;;6.03;2.20;;;21.10;94.20;;;;;;5071570;28;20077;-59
2022/07/13 05:35:48;;;;;;;4.05;1.92;;;21.40;93.50;;;;;;5071584;28;20053;-59
2022/07/13 05:38:14;;;;;;;3.45;1.92;;;21.40;93.70;;;;;;5071397;28;20681;-59
2022/07/13 05:40:39;;;;;;;5.25;2.40;;;22.70;91.60;;;;;;5071908;28;20481;-58
2022/07/13 05:43:06;;;;;;;6.85;2.25;;;21.60;93.00;;;;;;5071528;28;20032;-59
2022/07/13 05:45:32;;;;;;;7.00;2.10;;;21.80;93.00;;;;;;5071199;28;20035;-59
2022/07/13 05:47:58;;;;;;;6.97;2.33;;;22.30;92.00;;;;;;5071546;28;20465;-59
2022/07/13 05:50:24;;;;;;;6.57;2.30;;;21.60;93.00;;;;;;5071564;28;20029;-59
2022/07/13 05:52:50;;;;;;;9.20;2.85;;;21.80;92.80;;;;;;5071504;28;20025;-59
2022/07/13 05:55:17;;;;;;;8.52;2.28;;;21.50;93.10;;;;;;5071789;28;20047;-59
2022/07/13 05:57:44;;;;;;;12.95;2.53;;;22.30;92.40;;;;;;5071329;28;20028;-58
2022/07/13 06:00:12;;;;;;;33.75;3.92;;;24.30;89.20;;;;;;5070988;28;20074;-59
2022/07/13 06:02:41;;;;;;;14.23;2.88;;;25.70;86.10;;;;;;5071387;28;20090;-58
2022/07/13 06:05:08;;;;;;;10.90;2.78;;;26.80;82.20;;;;;;5071310;28;20028;-59
2022/07/13 06:07:33;;;;;;;8.25;2.45;;;27.70;81.00;;;;;;5071114;28;20485;-59
2022/07/13 06:10:01;;;;;;;7.50;2.20;;;27.90;80.90;;;;;;5071096;28;20031;-59
2022/07/13 06:12:27;;;;;;;7.18;2.72;;;28.20;80.00;;;;;;5071767;28;20082;-59
2022/07/13 06:14:53;;;;;;;8.95;2.40;;;28.60;79.60;;;;;;5074308;28;20452;-59
2022/07/13 06:17:20;;;;;;;7.60;2.20;;;29.30;78.10;;;;;;5074985;28;20108;-59
2022/07/13 06:19:46;;;;;;;5.80;2.30;;;30.10;75.00;;;;;;5075220;28;20146;-59
2022/07/13 06:22:11;;;;;;;5.60;1.85;;;30.60;74.00;;;;;;5074822;28;20025;-59
2022/07/13 06:24:37;;;;;;;6.78;2.15;;;30.50;74.60;;;;;;5074783;28;20385;-59
2022/07/13 06:27:03;;;;;;;5.32;1.92;;;30.80;73.90;;;;;;5074671;28;20028;-59
2022/07/13 06:29:28;;;;;;;8.10;2.00;;;31.40;73.60;;;;;;5074395;28;20027;-59
2022/07/13 06:31:54;;;;;;;3.47;2.00;;;31.80;71.90;;;;;;5074826;28;20028;-59
2022/07/13 06:34:20;;;;;;;3.03;1.90;;;32.50;69.80;;;;;;5075018;28;20077;-59
2022/07/13 06:36:46;;;;;;;8.13;1.80;;;34.50;65.60;;;;;;5074301;28;20071;-59
2022/07/13 06:39:11;;;;;;;5.18;2.00;;;35.10;65.70;;;;;;5074428;28;20032;-59
2022/07/13 06:41:37;;;;;;;4.50;1.83;;;35.20;64.80;;;;;;5074504;28;20031;-60
2022/07/13 06:44:03;;;;;;;8.00;1.98;;;35.80;64.10;;;;;;5074173;28;20024;-59
2022/07/13 06:46:28;;;;;;;3.67;1.70;;;36.40;63.00;;;;;;5074473;28;20497;-59
2022/07/13 06:48:54;;;;;;;3.05;2.10;;;36.70;62.00;;;;;;5074724;28;20478;-59
2022/07/13 06:51:20;;;;;;;4.07;3.15;;;36.70;64.30;;;;;;5074410;28;20020;-59
2022/07/13 06:53:46;;;;;;;4.07;2.17;;;35.90;64.30;;;;;;5073037;28;20070;-59
2022/07/13 06:56:11;;;;;;;3.25;2.00;;;38.20;62.00;;;;;;5074248;28;20036;-59
2022/07/13 06:58:37;;;;;;;3.05;1.70;;;37.30;62.40;;;;;;5074352;28;20021;-59
2022/07/13 07:01:03;;;;;;;4.82;1.65;;;37.80;61.20;;;;;;5074140;28;20111;-59
2022/07/13 07:03:29;;;;;;;3.83;1.48;;;38.30;61.50;;;;;;5074214;28;20028;-60
2022/07/13 07:05:55;;;;;;;3.30;1.52;;;38.50;62.20;;;;;;5074570;28;20032;-59
2022/07/13 07:08:21;;;;;;;3.10;1.50;;;37.50;62.30;;;;;;5074133;28;20020;-59
2022/07/13 07:10:47;;;;;;;3.30;1.50;;;37.70;62.20;;;;;;5074296;28;20052;-59
2022/07/13 07:13:14;;;;;;;1.50;1.30;;;39.30;60.50;;;;;;5074286;28;20048;-59
2022/07/13 07:15:39;;;;;;;2.85;1.48;;;39.40;60.10;;;;;;5074047;28;20085;-59
2022/07/13 07:18:05;;;;;;;3.00;1.50;;;40.70;57.90;;;;;;5074053;28;20024;-59
2022/07/13 07:20:31;;;;;;;1.25;1.15;;;39.80;58.60;;;;;;5074152;28;20431;-60
2022/07/13 07:22:57;;;;;;;2.50;1.20;;;39.40;59.10;;;;;;5073836;28;20100;-59
2022/07/13 07:25:23;;;;;;;1.80;1.20;;;38.70;57.70;;;;;;5073290;28;20028;-59
2022/07/13 07:27:50;;;;;;;2.17;1.10;;;40.10;57.60;;;;;;5073694;28;20028;-60
2022/07/13 07:30:16;;;;;;;1.63;1.40;;;39.60;57.70;;;;;;5073911;28;20028;-59
2022/07/13 07:32:42;;;;;;;2.22;1.20;;;40.90;56.90;;;;;;5073789;28;20527;-59
2022/07/13 07:35:08;;;;;;;3.20;1.15;;;40.90;56.70;;;;;;5073466;28;20393;-58
2022/07/13 07:37:37;;;;;;;1.20;1.10;;;40.30;58.10;;;;;;5073369;28;20055;-59
2022/07/13 07:40:03;;;;;;;4.40;1.20;;;40.00;56.70;;;;;;5073630;28;20561;-59
2022/07/13 07:42:29;;;;;;;2.45;1.10;;;39.90;56.60;;;;;;5073728;28;20056;-59
2022/07/13 07:44:56;;;;;;;3.13;1.30;;;40.90;55.90;;;;;;5073679;28;20111;-59
2022/07/13 07:47:25;;;;;;;2.50;1.13;;;40.20;57.20;;;;;;5073398;28;20074;-59
2022/07/13 07:49:53;;;;;;;2.45;1.20;;;39.40;57.30;;;;;;5073385;28;20082;-59
2022/07/13 07:52:20;;;;;;;4.32;1.13;;;38.40;58.50;;;;;;5072002;28;20600;-59
2022/07/13 07:54:46;;;;;;;1.35;1.10;;;39.40;57.60;;;;;;5072958;28;20017;-59
2022/07/13 07:57:13;;;;;;;2.08;1.20;;;39.30;56.60;;;;;;5073741;28;20507;-59
2022/07/13 07:59:39;;;;;;;2.67;1.27;;;40.70;56.50;;;;;;5073180;28;20009;-59
2022/07/13 08:02:05;;;;;;;2.58;1.13;;;39.30;56.10;;;;;;5073163;28;20036;-59
2022/07/13 08:04:31;;;;;;;4.03;3.03;;;40.70;57.30;;;;;;5073111;28;20029;-60
2022/07/13 08:06:57;;;;;;;3.90;1.52;;;43.40;54.20;;;;;;5073006;28;20054;-60
2022/07/13 08:09:23;;;;;;;3.63;1.60;;;43.70;54.40;;;;;;5072699;28;20025;-59
2022/07/13 08:11:48;;;;;;;2.85;1.17;;;43.50;53.80;;;;;;5073054;28;20150;-60
2022/07/13 08:14:14;;;;;;;3.65;1.30;;;41.80;55.70;;;;;;5072878;28;20024;-60
2022/07/13 08:16:40;;;;;;;2.15;1.15;;;39.80;56.20;;;;;;5073214;28;20409;-60
2022/07/13 08:19:06;;;;;;;3.97;2.95;;;41.70;55.30;;;;;;5072775;28;20109;-60
2022/07/13 08:21:32;;;;;;;3.92;3.33;;;40.60;55.90;;;;;;5072642;28;20113;-60
2022/07/13 08:23:58;;;;;;;3.58;2.00;;;42.00;54.80;;;;;;5072488;28;20029;-60
2022/07/13 08:26:27;;;;;;;1.88;1.27;;;41.70;55.80;;;;;;5072687;28;20025;-60
2022/07/13 08:28:54;;;;;;;2.50;1.35;;;42.40;55.20;;;;;;5072552;28;20477;-60
2022/07/13 08:31:22;;;;;;;1.92;1.20;;;42.60;54.70;;;;;;5072756;28;20468;-60
2022/07/13 08:39:40;;;;;;;3.75;1.25;;;42.20;54.80;;;;;;5049942;28;20115;-60
2022/07/13 08:42:07;;;;;;;2.08;1.50;;;44.10;52.50;;;;;;5050272;28;20040;-60
2022/07/13 08:44:32;;;;;;;2.72;1.60;;;44.70;53.70;;;;;;5049594;28;20037;-60
2022/07/13 08:46:59;;;;;;;4.18;2.90;;;45.50;52.20;;;;;;5050084;28;20033;-61
2022/07/13 08:49:25;;;;;;;3.03;2.35;;;42.30;53.40;;;;;;5050055;28;20052;-61
2022/07/13 08:51:52;;;;;;;3.63;1.40;;;40.50;55.60;;;;;;5050641;28;20489;-61
2022/07/13 08:54:18;;;;;;;2.38;1.42;;;43.20;53.10;;;;;;5033085;28;20021;-60
2022/07/13 08:56:44;;;;;;;3.33;1.40;;;42.80;52.20;;;;;;5050114;28;20045;-59
2022/07/13 08:59:09;;;;;;;2.28;1.20;;;42.30;52.80;;;;;;5050010;28;20025;-61
2022/07/13 09:01:36;;;;;;;2.50;1.23;;;41.60;53.10;;;;;;5050119;28;20501;-61
2022/07/13 09:04:02;;;;;;;3.72;1.42;;;40.20;54.00;;;;;;5049724;28;20029;-61
2022/07/13 09:06:44;;;;;;;2.65;1.52;;;41.50;52.30;;;;;;5050056;28;20124;-61
2022/07/13 09:09:27;;;;;;;4.93;1.23;;;41.00;53.90;;;;;;5049581;28;20025;-61
2022/07/13 09:12:16;;;;;;;4.55;1.45;;;40.70;53.30;;;;;;5052748;28;20027;-60
2022/07/13 09:14:44;;;;;;;1.75;1.38;;;40.00;53.20;;;;;;5051950;28;20116;-60
2022/07/13 09:17:35;;;;;;;1.48;1.20;;;40.00;53.30;;;;;;5051995;28;20053;-60
2022/07/13 09:20:14;;;;;;;4.57;1.75;;;41.30;51.60;;;;;;5052010;28;20470;-61
2022/07/13 09:22:48;;;;;;;2.00;1.40;;;42.50;51.90;;;;;;5052373;28;20044;-60
2022/07/13 09:25:28;;;;;;;2.28;1.30;;;41.20;51.60;;;;;;5052290;28;20066;-60
2022/07/13 09:27:55;;;;;;;2.33;1.52;;;40.30;52.10;;;;;;5051861;28;20029;-61
2022/07/13 09:30:23;;;;;;;3.60;1.30;;;41.90;51.80;;;;;;5051972;28;20033;-60
2022/07/13 09:32:50;;;;;;;3.10;1.60;;;41.40;52.00;;;;;;5052103;28;20022;-61
2022/07/13 09:35:16;;;;;;;3.00;1.50;;;40.50;54.20;;;;;;5051679;28;20040;-60
2022/07/13 09:37:41;;;;;;;2.80;1.35;;;39.60;52.70;;;;;;5059764;28;20535;-60
2022/07/13 09:40:09;;;;;;;3.35;1.65;;;38.90;52.40;;;;;;5071825;28;20081;-62
2022/07/13 09:42:40;;;;;;;2.17;1.20;;;39.30;54.00;;;;;;5071812;28;20036;-61
2022/07/13 09:47:56;;;;;;;4.95;1.30;;;38.40;55.20;;;;;;5073150;28;20051;-60
2022/07/13 09:50:24;;;;;;;1.88;1.23;;;39.00;52.50;;;;;;5075781;28;20108;-61
2022/07/13 09:52:52;;;;;;;2.58;1.20;;;39.30;51.40;;;;;;5075045;28;20036;-62
2022/07/13 09:55:24;;;;;;;2.30;1.27;;;;;;;;;;5075628;28;20039;-62
2022/07/13 09:57:59;;;;;;;3.60;1.20;;;38.00;52.90;;;;;;5075570;28;20492;-62
2022/07/13 10:00:26;;;;;;;1.30;1.20;;;37.70;51.70;;;;;;5075576;28;20366;-61
2022/07/13 10:02:53;;;;;;;1.73;1.17;;;;;;;;;;5075318;28;20405;-61
2022/07/13 10:05:19;;;;;;;2.35;1.05;;;;;;;;;;5073889;28;20098;-61
2022/07/13 10:07:47;;;;;;;2.28;1.40;;;36.70;54.60;;;;;;5075673;28;20032;-62
2022/07/13 10:10:14;;;;;;;2.97;1.10;;;35.20;55.60;;;;;;5075327;28;20028;-61
2022/07/13 10:12:41;;;;;;;4.20;1.17;;;35.80;55.70;;;;;;5075551;28;20054;-61
2022/07/13 10:15:07;;;;;;;2.13;1.40;;;36.10;54.20;;;;;;5075052;28;20459;-61
2022/07/13 10:17:34;;;;;;;1.10;1.00;;;35.60;55.60;;;;;;5074603;28;20029;-61
2022/07/13 10:20:11;;;;;;;2.28;1.00;;;;;;;;;;5074751;28;20151;-63
2022/07/13 10:22:45;;;;;;;1.58;1.15;;;35.10;55.00;;;;;;5075152;28;20047;-61
2022/07/13 10:25:12;;;;;;;1.92;1.10;;;35.00;54.50;;;;;;5075000;28;20024;-61
2022/07/13 10:27:41;;;;;;;3.63;1.15;;;34.80;55.80;;;;;;5075200;28;20091;-61
2022/07/13 10:30:24;;;;;;;1.60;1.13;;;35.80;53.30;;;;;;5074944;28;20020;-62
2022/07/13 10:32:50;;;;;;;2.10;1.10;;;34.20;56.00;;;;;;5075056;28;20086;-62
2022/07/13 10:35:17;;;;;;;2.10;1.08;;;35.30;55.50;;;;;;5074259;28;20024;-61
2022/07/13 10:38:03;;;;;;;4.88;1.20;;;34.70;54.80;;;;;;5073738;28;20507;-61
2022/07/13 10:40:30;;;;;;;1.10;1.00;;;35.30;53.70;;;;;;5067363;28;20110;-61
2022/07/13 10:43:04;;;;;;;1.13;0.95;;;34.10;54.80;;;;;;5074697;28;20054;-61
2022/07/13 10:45:36;;;;;;;3.15;1.05;;;34.60;55.20;;;;;;5074623;28;20028;-61
2022/07/13 10:48:05;;;;;;;2.45;1.10;;;35.00;56.00;;;;;;5074680;28;20025;-60
2022/07/13 10:50:43;;;;;;;2.33;1.10;;;35.10;55.50;;;;;;5074647;28;20038;-62
2022/07/13 10:53:09;;;;;;;2.58;1.20;;;34.20;57.80;;;;;;5074580;28;20108;-61
2022/07/13 10:55:35;;;;;;;1.67;1.00;;;35.10;56.30;;;;;;5074411;28;20123;-61
2022/07/13 10:58:40;;;;;;;2.00;1.15;;;34.30;55.60;;;;;;5074519;28;20564;-61
2022/07/13 11:01:30;;;;;;;2.35;1.10;;;34.60;56.70;;;;;;5072954;28;20037;-60
2022/07/13 11:03:57;;;;;;;2.33;1.30;;;34.10;58.10;;;;;;5072647;28;20021;-62
2022/07/13 11:06:24;;;;;;;1.85;1.10;;;34.50;57.70;;;;;;5073962;28;20042;-61
2022/07/13 11:09:07;;;;;;;1.77;1.10;;;34.80;58.80;;;;;;5074410;28;20085;-61
2022/07/13 11:11:33;;;;;;;2.92;1.10;;;34.40;55.70;;;;;;5074686;28;20028;-62
2022/07/13 11:13:59;;;;;;;3.60;1.00;;;34.10;56.70;;;;;;5074434;28;20488;-62
2022/07/13 11:16:46;;;;;;;2.45;1.00;;;34.50;56.90;;;;;;5074596;28;20396;-62
2022/07/13 11:19:11;;;;;;;1.90;1.10;;;33.90;57.40;;;;;;5074067;28;20103;-61
2022/07/13 11:22:10;;;;;;;2.30;1.08;;;34.60;58.80;;;;;;5074076;28;20464;-60
2022/07/13 11:27:40;;;;;;;2.72;1.00;;;34.40;55.60;;;;;;5074194;28;20038;-62
2022/07/13 11:30:07;;;;;;;3.75;1.08;;;33.80;56.70;;;;;;5074019;28;20035;-62
2022/07/13 11:32:33;;;;;;;1.55;1.02;;;34.40;55.80;;;;;;5073255;28;20131;-62
2022/07/13 11:34:59;;;;;;;4.55;0.90;;;34.20;56.60;;;;;;5073772;28;20099;-61
2022/07/13 11:37:25;;;;;;;2.20;1.10;;;33.90;55.80;;;;;;5073309;28;20048;-62
2022/07/13 11:39:51;;;;;;;3.25;1.08;;;34.20;56.50;;;;;;5073367;28;20013;-62
2022/07/13 11:42:23;;;;;;;1.50;0.95;;;33.60;61.80;;;;;;5073261;28;20029;-60
2022/07/13 11:44:52;;;;;;;1.15;0.90;;;34.40;58.70;;;;;;5073276;28;20024;-61
2022/07/13 11:47:19;;;;;;;2.45;1.00;;;34.30;55.70;;;;;;5073257;28;20029;-59
2022/07/13 11:49:50;;;;;;;2.42;1.17;;;34.20;56.70;;;;;;5073302;28;20086;-61
2022/07/13 11:52:20;;;;;;;4.03;1.10;;;33.70;61.00;;;;;;5073673;28;20025;-60
2022/07/13 11:54:56;;;;;;;2.78;1.10;;;34.60;55.60;;;;;;5073125;28;20039;-61
2022/07/13 11:57:22;;;;;;;2.15;1.02;;;34.20;56.10;;;;;;5073344;28;20025;-61
2022/07/13 11:59:47;;;;;;;1.60;0.90;;;34.50;57.70;;;;;;5073112;28;20035;-60
2022/07/13 12:02:14;;;;;;;3.40;1.20;;;34.40;57.70;;;;;;5052254;28;20029;-60
2022/07/13 12:04:48;;;;;;;2.17;1.30;;;34.40;55.80;;;;;;5052443;28;20025;-60
2022/07/13 12:07:19;;;;;;;2.28;1.10;;;34.30;62.50;;;;;;5053082;28;20049;-59
2022/07/13 12:09:58;;;;;;;1.15;0.90;;;34.80;56.20;;;;;;5052983;28;20102;-60
2022/07/13 12:12:26;;;;;;;1.98;1.13;;;34.40;58.10;;;;;;5052729;28;20025;-60
2022/07/13 12:14:53;;;;;;;3.28;1.20;;;34.40;57.80;;;;;;5051995;28;20029;-59
2022/07/13 12:17:20;;;;;;;3.75;0.90;;;34.30;57.50;;;;;;5052411;28;20047;-60
2022/07/13 12:19:46;;;;;;;3.70;1.00;;;34.50;55.60;;;;;;5052439;28;20021;-60
2022/07/13 12:22:12;;;;;;;6.75;1.08;;;35.00;57.10;;;;;;5052617;28;20086;-61
2022/07/13 12:24:47;;;;;;;3.15;1.10;;;35.00;55.90;;;;;;5054603;28;20028;-61
2022/07/13 12:27:39;;;;;;;4.43;1.10;;;34.20;57.70;;;;;;5072302;28;20108;-60
2022/07/13 12:30:11;;;;;;;1.52;0.90;;;34.60;57.00;;;;;;5069986;28;20032;-60
2022/07/13 12:33:11;;;;;;;1.40;1.10;;;34.60;56.00;;;;;;5072240;28;20050;-60
2022/07/13 12:35:39;;;;;;;2.05;1.10;;;34.60;58.70;;;;;;5071102;28;20049;-59
2022/07/13 12:38:11;;;;;;;1.80;1.00;;;34.60;57.40;;;;;;5072339;28;20028;-59
2022/07/13 12:40:44;;;;;;;2.28;1.00;;;34.30;56.90;;;;;;5071732;28;20082;-60
2022/07/13 12:43:23;;;;;;;1.48;1.10;;;33.70;58.10;;;;;;5072161;28;20028;-60
2022/07/13 12:45:54;;;;;;;1.95;1.00;;;34.00;56.20;;;;;;5071828;28;20028;-60
2022/07/13 12:48:22;;;;;;;2.90;0.98;;;34.60;56.80;;;;;;5070744;28;20086;-61
2022/07/13 12:51:20;;;;;;;1.98;1.10;;;34.50;55.30;;;;;;5072662;28;20024;-61
2022/07/13 12:53:59;;;;;;;2.92;1.27;;;34.20;56.70;;;;;;5029732;28;20048;-59
2022/07/13 12:56:44;;;;;;;1.30;1.08;;;34.00;61.70;;;;;;5029542;28;20053;-59
2022/07/13 12:59:11;;;;;;;1.30;1.20;;;34.00;57.20;;;;;;5024794;28;20033;-60
2022/07/13 13:01:38;;;;;;;3.70;0.95;;;34.70;56.40;;;;;;5027448;28;20646;-60